createdAt,value
2018-04-04T00:01:15.703Z,3.00
2018-04-04T00:03:43.173Z,2.80
2018-04-04T00:06:10.667Z,6.30
2018-04-04T00:08:38.135Z,5.50
2018-04-04T00:11:05.606Z,6.97
2018-04-04T00:13:33.102Z,4.83
2018-04-04T00:16:00.576Z,4.17
2018-04-04T00:18:28.806Z,4.40
2018-04-04T00:20:57.322Z,4.17
2018-04-04T00:23:24.842Z,2.77
2018-04-04T00:25:52.335Z,2.90
2018-04-04T00:28:19.811Z,4.13
2018-04-04T00:30:48.051Z,3.63
2018-04-04T00:33:15.636Z,3.53
2018-04-04T00:35:43.149Z,3.23
2018-04-04T00:38:10.627Z,2.87
2018-04-04T00:40:38.107Z,2.27
2018-04-04T00:43:05.622Z,3.77
2018-04-04T00:45:33.121Z,3.27
2018-04-04T00:48:00.612Z,2.83
2018-04-04T00:50:28.854Z,2.50
2018-04-04T00:52:56.336Z,2.47
2018-04-04T00:55:24.586Z,2.73
2018-04-04T00:57:52.058Z,2.47
2018-04-04T01:00:19.527Z,1.80
2018-04-04T01:02:46.997Z,2.50
2018-04-04T01:05:15.301Z,2.10
2018-04-04T01:07:42.787Z,1.87
2018-04-04T01:10:10.252Z,2.20
2018-04-04T01:12:37.728Z,2.53
2018-04-04T01:15:05.198Z,1.97
2018-04-04T01:17:34.303Z,2.33
2018-04-04T01:20:02.526Z,2.30
2018-04-04T01:22:30.008Z,2.20
2018-04-04T01:24:57.910Z,1.77
2018-04-04T01:27:26.163Z,2.43
2018-04-04T01:29:53.626Z,2.70
2018-04-04T01:32:21.104Z,1.97
2018-04-04T01:34:49.341Z,2.73
2018-04-04T01:37:16.811Z,2.70
2018-04-04T01:39:44.282Z,2.70
2018-04-04T01:42:12.535Z,2.90
2018-04-04T01:44:40.011Z,2.57
2018-04-04T01:47:07.494Z,2.60
2018-04-04T01:49:35.723Z,2.60
2018-04-04T01:52:03.223Z,2.40
2018-04-04T01:54:31.450Z,2.20
2018-04-04T01:56:58.924Z,2.40
2018-04-04T01:59:26.397Z,2.30
2018-04-04T02:01:53.869Z,2.10
2018-04-04T02:04:22.120Z,2.23
2018-04-04T02:06:49.590Z,2.77
2018-04-04T02:09:17.050Z,2.60
2018-04-04T02:11:44.534Z,2.47
2018-04-04T02:14:11.999Z,2.97
2018-04-04T02:16:39.512Z,2.13
2018-04-04T02:19:06.991Z,2.13
2018-04-04T02:21:35.238Z,2.47
2018-04-04T02:24:02.710Z,2.27
2018-04-04T02:26:30.182Z,2.27
2018-04-04T02:28:57.647Z,2.20
2018-04-04T02:31:25.879Z,2.70
2018-04-04T02:33:53.355Z,2.13
2018-04-04T02:36:20.822Z,2.33
2018-04-04T02:38:48.287Z,2.17
2018-04-04T02:41:15.766Z,1.93
2018-04-04T02:43:43.995Z,2.27
2018-04-04T02:46:12.442Z,2.33
2018-04-04T02:48:39.926Z,2.10
2018-04-04T02:51:07.408Z,1.43
2018-04-04T02:53:34.875Z,3.73
2018-04-04T02:56:02.341Z,2.00
2018-04-04T02:58:30.593Z,2.60
2018-04-04T03:00:58.059Z,2.13
2018-04-04T03:03:25.543Z,2.40
2018-04-04T03:05:53.774Z,2.00
2018-04-04T03:08:21.347Z,2.30
2018-04-04T03:10:49.674Z,2.33
2018-04-04T03:13:17.180Z,2.00
2018-04-04T03:15:44.636Z,1.77
2018-04-04T03:18:12.111Z,1.93
2018-04-04T03:20:39.578Z,2.00
2018-04-04T03:23:07.050Z,3.50
2018-04-04T03:25:35.291Z,3.10
2018-04-04T03:28:02.774Z,2.17
2018-04-04T03:30:31.011Z,2.23
2018-04-04T03:32:58.488Z,2.17
2018-04-04T03:35:25.989Z,2.70
2018-04-04T03:37:54.226Z,2.40
2018-04-04T03:40:21.691Z,2.13
2018-04-04T03:42:49.166Z,1.97
2018-04-04T03:45:17.400Z,1.70
2018-04-04T03:47:44.882Z,2.90
2018-04-04T03:50:12.359Z,2.00
2018-04-04T03:52:39.870Z,1.90
2018-04-04T03:55:07.391Z,2.43
2018-04-04T03:57:35.627Z,2.70
2018-04-04T04:00:03.159Z,2.60
2018-04-04T04:02:30.630Z,2.50
2018-04-04T04:04:58.111Z,2.47
2018-04-04T04:07:25.584Z,2.63
2018-04-04T04:09:53.056Z,2.17
2018-04-04T04:12:21.296Z,1.50
2018-04-04T04:14:48.765Z,2.10
2018-04-04T04:17:16.248Z,2.93
2018-04-04T04:19:44.486Z,1.87
2018-04-04T04:22:11.960Z,2.30
2018-04-04T04:24:39.430Z,2.20
2018-04-04T04:27:06.906Z,1.77
2018-04-04T04:29:35.145Z,2.40
2018-04-04T04:32:02.623Z,2.40
2018-04-04T04:34:30.106Z,2.10
2018-04-04T04:36:58.343Z,2.40
2018-04-04T04:39:25.812Z,2.10
2018-04-04T04:41:53.290Z,2.47
2018-04-04T04:44:21.521Z,2.70
2018-04-04T04:46:48.994Z,3.10
2018-04-04T04:49:16.467Z,2.77
2018-04-04T04:51:43.947Z,3.30
2018-04-04T04:54:12.190Z,3.37
2018-04-04T04:56:39.656Z,3.20
2018-04-04T04:59:07.134Z,3.33
2018-04-04T05:01:35.376Z,4.37
2018-04-04T05:04:02.873Z,4.50
2018-04-04T05:06:31.110Z,3.97
2018-04-04T05:08:59.365Z,4.47
2018-04-04T05:11:26.836Z,3.07
2018-04-04T05:13:54.314Z,3.37
2018-04-04T05:16:21.784Z,3.37
2018-04-04T05:18:49.259Z,2.90
2018-04-04T05:21:17.493Z,2.70
2018-04-04T05:23:44.967Z,2.90
2018-04-04T05:26:12.443Z,3.80
2018-04-04T05:28:40.686Z,4.20
2018-04-04T05:31:08.150Z,4.20
2018-04-04T05:33:35.637Z,4.23
2018-04-04T05:36:03.891Z,5.17
2018-04-04T05:38:31.375Z,3.73
2018-04-04T05:40:59.647Z,3.47
2018-04-04T05:43:27.122Z,4.03
2018-04-04T05:45:55.402Z,3.43
2018-04-04T05:48:22.874Z,3.50
2018-04-04T05:50:50.351Z,3.20
2018-04-04T05:53:17.834Z,3.33
2018-04-04T05:55:45.307Z,3.33
2018-04-04T05:58:14.691Z,3.30
2018-04-04T06:00:42.163Z,3.50
2018-04-04T06:03:09.646Z,4.00
2018-04-04T06:05:37.883Z,3.73
2018-04-04T06:08:05.355Z,3.27
2018-04-04T06:10:32.838Z,3.57
2018-04-04T06:13:01.070Z,3.47
2018-04-04T06:15:28.535Z,3.70
2018-04-04T06:17:56.038Z,3.43
2018-04-04T06:20:24.282Z,3.00
2018-04-04T06:22:51.749Z,3.60
2018-04-04T06:25:19.213Z,3.93
2018-04-04T06:27:47.459Z,3.53
2018-04-04T06:30:14.942Z,3.53
2018-04-04T06:32:42.419Z,3.27
2018-04-04T06:35:11.136Z,3.20
2018-04-04T06:37:38.615Z,3.33
2018-04-04T06:40:06.082Z,3.40
2018-04-04T06:42:33.842Z,4.00
2018-04-04T06:45:01.328Z,3.87
2018-04-04T06:47:28.806Z,3.77
2018-04-04T06:49:57.048Z,3.50
2018-04-04T06:52:24.515Z,4.03
2018-04-04T06:54:51.998Z,3.67
2018-04-04T06:57:20.247Z,3.70
2018-04-04T06:59:47.725Z,3.00
2018-04-04T07:02:15.978Z,2.73
2018-04-04T07:04:43.454Z,3.27
2018-04-04T07:07:10.919Z,2.67
2018-04-04T07:09:39.222Z,2.10
2018-04-04T07:12:06.691Z,2.60
2018-04-04T07:14:34.171Z,2.70
2018-04-04T07:17:01.649Z,2.40
2018-04-04T07:19:29.123Z,2.30
2018-04-04T07:21:56.602Z,2.17
2018-04-04T07:24:24.848Z,2.10
2018-04-04T07:26:52.309Z,2.10
2018-04-04T07:29:19.811Z,2.17
2018-04-04T07:31:47.706Z,2.00
2018-04-04T07:34:15.179Z,2.10
2018-04-04T07:36:42.656Z,2.50
2018-04-04T07:39:10.133Z,2.40
2018-04-04T07:41:38.371Z,2.30
2018-04-04T07:44:06.226Z,1.70
2018-04-04T07:46:33.686Z,2.70
2018-04-04T07:49:02.147Z,2.50
2018-04-04T07:51:29.662Z,3.03
2018-04-04T07:53:57.193Z,3.00
2018-04-04T07:56:24.683Z,2.17
2018-04-04T07:58:52.171Z,2.70
2018-04-04T08:01:19.649Z,2.73
2018-04-04T08:03:47.114Z,2.90
2018-04-04T08:06:14.578Z,2.63
2018-04-04T08:08:42.078Z,1.80
2018-04-04T08:11:09.538Z,2.53
2018-04-04T08:13:37.778Z,2.50
2018-04-04T08:16:05.251Z,1.87
2018-04-04T08:18:32.735Z,2.93
2018-04-04T08:21:00.975Z,2.20
2018-04-04T08:23:28.454Z,1.90
2018-04-04T08:25:55.924Z,2.17
2018-04-04T08:28:23.405Z,2.10
2018-04-04T08:30:51.630Z,2.20
2018-04-04T08:33:19.155Z,2.17
2018-04-04T08:35:46.615Z,2.33
2018-04-04T08:38:14.090Z,2.43
2018-04-04T08:40:41.562Z,2.60
2018-04-04T08:43:09.798Z,1.87
2018-04-04T08:45:37.271Z,2.07
2018-04-04T08:48:04.742Z,2.00
2018-04-04T08:50:32.218Z,1.90
2018-04-04T08:52:59.707Z,1.60
2018-04-04T08:55:27.943Z,1.40
2018-04-04T08:57:55.408Z,1.20
2018-04-04T09:00:22.887Z,2.00
2018-04-04T09:02:50.360Z,2.57
2018-04-04T09:05:17.837Z,2.97
2018-04-04T09:07:46.062Z,2.83
2018-04-04T09:10:13.539Z,2.73
2018-04-04T09:12:41.002Z,2.23
2018-04-04T09:15:08.479Z,2.83
2018-04-04T09:17:36.710Z,2.40
2018-04-04T09:20:04.231Z,3.10
2018-04-04T09:22:32.449Z,2.97
2018-04-04T09:24:59.917Z,2.73
2018-04-04T09:27:28.194Z,2.80
2018-04-04T09:29:55.732Z,2.40
2018-04-04T09:32:23.930Z,2.70
2018-04-04T09:34:51.407Z,3.20
2018-04-04T09:37:18.875Z,2.57
2018-04-04T09:39:47.140Z,2.40
2018-04-04T09:42:14.610Z,2.67
2018-04-04T09:44:42.855Z,2.67
2018-04-04T09:47:10.334Z,2.70
2018-04-04T09:49:37.815Z,2.73
2018-04-04T09:52:06.047Z,3.67
2018-04-04T09:54:33.523Z,2.50
2018-04-04T09:57:00.984Z,2.97
2018-04-04T09:59:28.503Z,3.03
2018-04-04T10:01:55.956Z,2.60
2018-04-04T10:04:23.442Z,3.47
2018-04-04T10:06:50.928Z,2.87
2018-04-04T10:09:19.166Z,2.80
2018-04-04T10:11:47.016Z,2.37
2018-04-04T10:14:14.478Z,2.23
2018-04-04T10:16:41.946Z,3.00
2018-04-04T10:19:09.427Z,2.63
2018-04-04T10:21:37.152Z,2.47
2018-04-04T10:24:04.634Z,1.93
2018-04-04T10:26:32.116Z,1.90
2018-04-04T10:28:59.806Z,1.77
2018-04-04T10:31:28.049Z,1.43
2018-04-04T10:33:55.526Z,0.70
2018-04-04T10:36:23.765Z,0.77
2018-04-04T10:38:51.292Z,0.70
2018-04-04T10:41:18.779Z,1.10
2018-04-04T10:43:46.258Z,0.77
2018-04-04T10:46:13.736Z,1.07
2018-04-04T10:48:41.226Z,1.07
2018-04-04T10:51:08.694Z,1.00
2018-04-04T10:53:36.166Z,1.40
2018-04-04T10:56:03.634Z,1.30
2018-04-04T10:58:31.102Z,1.47
2018-04-04T11:00:58.581Z,1.70
2018-04-04T11:03:26.052Z,1.50
2018-04-04T11:05:53.540Z,1.77
2018-04-04T11:08:21.010Z,1.47
2018-04-04T11:10:48.487Z,1.90
2018-04-04T11:13:15.946Z,3.43
2018-04-04T11:15:43.467Z,1.47
2018-04-04T11:18:10.902Z,1.63
2018-04-04T11:20:38.375Z,2.17
2018-04-04T11:23:06.612Z,1.53
2018-04-04T11:25:34.083Z,1.40
2018-04-04T11:28:01.556Z,1.47
2018-04-04T11:30:29.037Z,1.30
2018-04-04T11:32:57.262Z,1.40
2018-04-04T11:35:24.743Z,1.50
2018-04-04T11:37:52.207Z,1.90
2018-04-04T11:40:20.455Z,1.50
2018-04-04T11:42:47.915Z,1.60
2018-04-04T11:45:15.404Z,1.17
2018-04-04T11:47:43.652Z,1.50
2018-04-04T11:50:11.134Z,2.03
2018-04-04T11:52:38.607Z,2.00
2018-04-04T11:55:06.861Z,2.17
2018-04-04T11:57:34.331Z,1.90
2018-04-04T12:00:01.813Z,1.60
2018-04-04T12:02:30.055Z,2.00
2018-04-04T12:04:57.595Z,1.67
2018-04-04T12:07:25.078Z,1.87
2018-04-04T12:09:52.574Z,1.60
2018-04-04T12:12:20.038Z,2.27
2018-04-04T12:14:47.518Z,1.63
2018-04-04T12:17:14.984Z,2.10
2018-04-04T12:19:42.468Z,2.27
2018-04-04T12:22:09.957Z,2.70
2018-04-04T12:24:38.193Z,2.03
2018-04-04T12:27:05.656Z,2.17
2018-04-04T12:29:33.138Z,2.47
2018-04-04T12:32:01.374Z,1.93
2018-04-04T12:34:28.860Z,2.20
2018-04-04T12:36:56.325Z,2.00
2018-04-04T12:39:23.802Z,2.60
2018-04-04T12:41:52.035Z,2.00
2018-04-04T12:44:19.513Z,2.60
2018-04-04T12:46:46.980Z,2.47
2018-04-04T12:49:14.470Z,2.90
2018-04-04T12:51:41.942Z,1.90
2018-04-04T12:54:09.437Z,2.73
2018-04-04T12:56:36.922Z,1.63
2018-04-04T12:59:05.154Z,2.40
2018-04-04T13:01:32.638Z,2.10
2018-04-04T13:04:00.107Z,2.37
2018-04-04T13:06:27.580Z,2.80
2018-04-04T13:08:56.206Z,3.10
2018-04-04T13:11:23.675Z,2.70
2018-04-04T13:13:51.152Z,2.30
2018-04-04T13:16:30.490Z,2.60
2018-04-04T13:18:58.012Z,3.10
2018-04-04T13:21:25.482Z,1.80
2018-04-04T13:23:52.954Z,1.93
2018-04-04T13:26:20.623Z,2.30
2018-04-04T13:28:48.089Z,1.53
2018-04-04T13:31:15.558Z,2.03
2018-04-04T13:33:43.031Z,2.40
2018-04-04T13:36:11.279Z,1.77
2018-04-04T13:38:38.772Z,2.50
2018-04-04T13:41:07.006Z,2.37
2018-04-04T13:43:34.474Z,3.23
2018-04-04T13:46:01.953Z,2.50
2018-04-04T13:48:29.432Z,2.87
2018-04-04T13:50:57.708Z,2.30
2018-04-04T13:53:25.142Z,2.60
2018-04-04T13:55:52.667Z,2.37
2018-04-04T13:58:20.152Z,2.50
2018-04-04T14:00:47.637Z,2.73
2018-04-04T14:03:15.129Z,2.43
2018-04-04T14:05:43.341Z,3.00
2018-04-04T14:08:10.813Z,2.77
2018-04-04T14:10:38.278Z,3.37
2018-04-04T14:13:06.548Z,2.23
2018-04-04T14:15:34.014Z,3.23
2018-04-04T14:18:01.491Z,2.87
2018-04-04T14:20:29.736Z,2.77
2018-04-04T14:22:57.218Z,2.27
2018-04-04T14:25:25.454Z,3.17
2018-04-04T14:27:52.943Z,3.23
2018-04-04T14:30:20.411Z,2.87
2018-04-04T14:32:48.670Z,4.00
2018-04-04T14:35:16.174Z,2.20
2018-04-04T14:37:44.392Z,3.00
2018-04-04T14:40:11.867Z,3.07
2018-04-04T14:42:39.344Z,2.60
2018-04-04T14:45:07.599Z,3.43
2018-04-04T14:47:35.080Z,2.43
2018-04-04T14:50:03.354Z,2.43
2018-04-04T14:52:31.586Z,3.50
2018-04-04T14:54:59.089Z,2.90
2018-04-04T14:57:26.584Z,3.03
2018-04-04T14:59:54.072Z,2.80
2018-04-04T15:02:22.381Z,3.00
2018-04-04T15:04:49.870Z,3.20
2018-04-04T15:07:21.003Z,3.50
2018-04-04T15:09:48.479Z,2.63
2018-04-04T15:12:15.951Z,2.50
2018-04-04T15:14:43.444Z,3.50
2018-04-04T15:17:10.907Z,3.23
2018-04-04T15:19:38.420Z,3.10
2018-04-04T15:22:05.950Z,3.30
2018-04-04T15:24:34.963Z,4.27
2018-04-04T15:27:02.428Z,3.30
2018-04-04T15:29:29.915Z,3.80
2018-04-04T15:31:57.407Z,3.80
2018-04-04T15:34:24.883Z,3.83
2018-04-04T15:36:53.111Z,3.93
2018-04-04T15:39:20.605Z,4.07
2018-04-04T15:41:48.898Z,4.90
2018-04-04T15:44:17.169Z,2.93
2018-04-04T15:46:45.402Z,4.20
2018-04-04T15:49:12.882Z,2.93
2018-04-04T15:51:40.369Z,4.17
2018-04-04T15:54:08.599Z,4.70
2018-04-04T15:56:36.070Z,5.50
2018-04-04T15:59:03.543Z,4.47
2018-04-04T16:01:31.026Z,3.87
2018-04-04T16:03:58.498Z,4.40
2018-04-04T16:06:25.966Z,4.87
2018-04-04T16:08:53.445Z,5.03
2018-04-04T16:11:20.926Z,5.43
2018-04-04T16:13:48.404Z,5.77
2018-04-04T16:16:16.641Z,4.73
2018-04-04T16:18:44.115Z,3.70
2018-04-04T16:21:11.607Z,4.80
2018-04-04T16:23:39.850Z,5.30
2018-04-04T16:26:07.336Z,5.90
2018-04-04T16:28:35.578Z,5.90
2018-04-04T16:31:03.051Z,4.57
2018-04-04T16:33:30.519Z,6.80
2018-04-04T16:35:58.766Z,6.53
2018-04-04T16:38:26.235Z,5.90
2018-04-04T16:40:53.706Z,5.93
2018-04-04T16:43:21.214Z,5.33
2018-04-04T16:45:48.687Z,3.80
2018-04-04T16:48:16.162Z,3.50
2018-04-04T16:50:43.626Z,3.70
2018-04-04T16:53:11.099Z,4.10
2018-04-04T16:55:38.627Z,2.53
2018-04-04T16:58:06.813Z,3.50
2018-04-04T17:00:34.270Z,3.97
2018-04-04T17:03:01.738Z,2.57
2018-04-04T17:05:29.202Z,2.60
2018-04-04T17:07:56.678Z,2.60
2018-04-04T17:10:24.966Z,2.53
2018-04-04T17:12:53.208Z,1.90
2018-04-04T17:15:20.667Z,1.67
2018-04-04T17:17:48.159Z,2.10
2018-04-04T17:20:16.400Z,1.80
2018-04-04T17:22:43.875Z,1.40
2018-04-04T17:25:11.326Z,1.97
2018-04-04T17:27:38.807Z,1.70
2018-04-04T17:30:07.035Z,1.63
2018-04-04T17:32:34.502Z,1.67
2018-04-04T17:35:08.845Z,2.43
2018-04-04T17:37:36.314Z,1.77
2018-04-04T17:40:04.551Z,2.10
2018-04-04T17:42:32.021Z,1.57
2018-04-04T17:44:59.488Z,1.90
2018-04-04T17:47:26.971Z,1.43
2018-04-04T17:49:55.194Z,1.30
2018-04-04T17:52:22.676Z,1.23
2018-04-04T17:54:50.135Z,1.30
2018-04-04T17:57:17.602Z,1.70
2018-04-04T17:59:45.066Z,1.50
2018-04-04T18:02:12.546Z,1.77
2018-04-04T18:04:40.771Z,1.37
2018-04-04T18:07:08.281Z,2.00
2018-04-04T18:09:35.737Z,1.60
2018-04-04T18:12:03.976Z,1.50
2018-04-04T18:14:31.453Z,2.37
2018-04-04T18:16:58.910Z,1.67
2018-04-04T18:19:26.372Z,1.60
2018-04-04T18:21:53.849Z,2.00
2018-04-04T18:24:22.075Z,1.90
2018-04-04T18:26:49.550Z,2.27
2018-04-04T18:29:17.024Z,1.67
2018-04-04T18:31:44.493Z,2.10
2018-04-04T18:34:12.716Z,1.50
2018-04-04T18:36:40.215Z,1.57
2018-04-04T18:39:07.730Z,1.90
2018-04-04T18:41:35.206Z,1.63
2018-04-04T18:44:02.670Z,2.03
2018-04-04T18:46:30.193Z,1.90
2018-04-04T18:48:57.614Z,2.37
2018-04-04T18:51:25.086Z,1.87
2018-04-04T18:53:53.313Z,1.73
2018-04-04T18:56:20.778Z,1.50
2018-04-04T18:58:48.235Z,1.83
2018-04-04T19:01:15.705Z,2.03
2018-04-04T19:03:43.168Z,2.40
2018-04-04T19:06:10.626Z,1.83
2018-04-04T19:08:38.096Z,1.80
2018-04-04T19:11:05.606Z,2.23
2018-04-04T19:13:33.098Z,2.10
2018-04-04T19:16:00.847Z,2.00
2018-04-04T19:18:29.074Z,2.23
2018-04-04T19:20:57.334Z,2.90
2018-04-04T19:23:24.802Z,2.10
2018-04-04T19:25:53.890Z,2.63
2018-04-04T19:28:21.355Z,2.30
2018-04-04T19:30:49.578Z,2.60
2018-04-04T19:33:17.058Z,2.30
2018-04-04T19:35:44.538Z,2.97
2018-04-04T19:38:12.003Z,2.87
2018-04-04T19:40:40.231Z,3.23
2018-04-04T19:43:07.698Z,2.90
2018-04-04T19:45:35.155Z,2.50
2018-04-04T19:48:02.635Z,2.10
2018-04-04T19:50:30.093Z,3.27
2018-04-04T19:52:57.566Z,2.70
2018-04-04T19:55:25.028Z,2.50
2018-04-04T19:57:53.262Z,2.73
2018-04-04T20:00:20.740Z,3.10
2018-04-04T20:02:48.212Z,2.50
2018-04-04T20:05:15.678Z,2.70
2018-04-04T20:07:43.207Z,2.53
2018-04-04T20:10:10.642Z,2.57
2018-04-04T20:12:38.119Z,2.20
2018-04-04T20:15:05.578Z,2.47
2018-04-04T20:17:33.053Z,2.40
2018-04-04T20:20:00.584Z,2.63
2018-04-04T20:22:28.063Z,4.03
2018-04-04T20:24:55.524Z,3.63
2018-04-04T20:27:23.011Z,3.40
2018-04-04T20:29:51.242Z,3.07
2018-04-04T20:32:18.722Z,3.87
2018-04-04T20:34:46.174Z,3.60
2018-04-04T20:37:13.644Z,3.50
2018-04-04T20:39:41.110Z,3.53
2018-04-04T20:42:08.582Z,3.67
2018-04-04T20:44:36.814Z,3.20
2018-04-04T20:47:04.290Z,3.60
2018-04-04T20:49:31.750Z,2.77
2018-04-04T20:51:59.218Z,2.70
2018-04-04T20:54:26.692Z,2.97
2018-04-04T20:56:55.138Z,2.00
2018-04-04T20:59:22.604Z,4.00
2018-04-04T21:01:50.062Z,2.77
2018-04-04T21:04:17.527Z,2.00
2018-04-04T21:06:45.019Z,2.03
2018-04-04T21:09:13.265Z,2.30
2018-04-04T21:11:40.716Z,2.20
2018-04-04T21:14:08.206Z,4.00
2018-04-04T21:16:36.432Z,5.40
2018-04-04T21:19:03.931Z,4.73
2018-04-04T21:21:31.382Z,3.13
2018-04-04T21:23:59.395Z,2.60
2018-04-04T21:26:26.870Z,3.00
2018-04-04T21:28:54.339Z,3.27
2018-04-04T21:31:21.831Z,2.20
2018-04-04T21:33:50.082Z,2.63
2018-04-04T21:36:17.566Z,2.10
2018-04-04T21:38:45.039Z,2.27
2018-04-04T21:41:13.263Z,2.70
2018-04-04T21:43:40.742Z,3.03
2018-04-04T21:46:08.211Z,2.30
2018-04-04T21:48:35.674Z,2.33
2018-04-04T21:51:03.132Z,2.43
2018-04-04T21:53:30.599Z,3.10
2018-04-04T21:55:58.832Z,2.67
2018-04-04T21:58:26.303Z,2.60
2018-04-04T22:00:54.524Z,2.20
2018-04-04T22:03:22.002Z,3.00
2018-04-04T22:05:49.467Z,3.20
2018-04-04T22:08:16.947Z,3.13
2018-04-04T22:10:44.407Z,2.70
2018-04-04T22:13:11.875Z,3.27
2018-04-04T22:15:39.338Z,2.90
2018-04-04T22:18:06.814Z,2.77
2018-04-04T22:20:35.045Z,2.90
2018-04-04T22:23:02.579Z,3.00
2018-04-04T22:25:29.995Z,3.00
2018-04-04T22:27:57.480Z,3.37
2018-04-04T22:30:25.698Z,3.60
2018-04-04T22:32:53.178Z,3.37
2018-04-04T22:35:20.634Z,2.77
2018-04-04T22:37:48.122Z,3.50
2018-04-04T22:40:16.351Z,3.57
2018-04-04T22:42:43.823Z,3.37
2018-04-04T22:45:11.283Z,2.93
2018-04-04T22:47:38.747Z,3.50
2018-04-04T22:50:06.239Z,3.27
2018-04-04T22:52:33.751Z,2.90
2018-04-04T22:55:01.208Z,3.10
2018-04-04T22:57:28.674Z,2.70
2018-04-04T22:59:56.171Z,3.30
2018-04-04T23:02:24.425Z,3.67
2018-04-04T23:04:51.928Z,3.43
2018-04-04T23:07:19.399Z,4.13
2018-04-04T23:09:46.870Z,3.33
2018-04-04T23:12:14.330Z,3.50
2018-04-04T23:14:41.799Z,4.40
2018-04-04T23:17:09.262Z,3.63
2018-04-04T23:19:36.999Z,3.93
2018-04-04T23:22:04.478Z,4.07
2018-04-04T23:24:31.946Z,3.80
2018-04-04T23:26:59.402Z,4.40
2018-04-04T23:29:26.867Z,3.80
2018-04-04T23:31:54.352Z,4.17
2018-04-04T23:34:22.583Z,4.77
2018-04-04T23:36:50.052Z,3.40
2018-04-04T23:39:17.519Z,3.50
2018-04-04T23:41:44.982Z,3.10
2018-04-04T23:44:12.470Z,3.27
2018-04-04T23:46:40.691Z,3.13
2018-04-04T23:49:08.187Z,3.47
2018-04-04T23:51:35.619Z,2.93
2018-04-04T23:54:03.095Z,3.37
2018-04-04T23:56:30.549Z,3.10
2018-04-04T23:58:58.043Z,3.90
